Time;durP1;ratioP1;P1;durP2;ratioP2;P2;SDS_P1;SDS_P2;PMS_P1;PMS_P2;Temp;Humidity;BMP_temperature;BMP_pressure;BME280_temperature;BME280_humidity;BME280_pressure;Samples;Min_cycle;Max_cycle;Signal;HPM_P1;HPM_P2
2021/07/26 00:01:21;;;;;;;17.83;10.50;;;16.60;99.90;;;;;;5013565;28;20033;-72
2021/07/26 00:03:46;;;;;;;11.90;9.80;;;16.60;99.90;;;;;;4995918;28;20064;-72
2021/07/26 00:06:12;;;;;;;14.07;10.45;;;16.60;99.90;;;;;;5012189;28;20033;-71
2021/07/26 00:08:38;;;;;;;14.60;11.18;;;16.50;99.90;;;;;;5012723;28;20030;-72
2021/07/26 00:11:06;;;;;;;17.90;10.85;;;16.50;99.90;;;;;;5013309;28;20022;-72
2021/07/26 00:13:32;;;;;;;13.18;10.70;;;16.50;99.90;;;;;;5013305;28;20044;-73
2021/07/26 00:15:58;;;;;;;16.00;9.90;;;16.50;99.90;;;;;;5012562;28;20053;-72
2021/07/26 00:18:26;;;;;;;17.42;10.82;;;16.40;99.90;;;;;;5013142;28;20061;-73
2021/07/26 00:20:52;;;;;;;15.75;12.07;;;16.50;99.90;;;;;;5013283;28;20058;-73
2021/07/26 00:23:17;;;;;;;16.20;11.60;;;16.60;99.90;;;;;;5012796;28;20124;-72
2021/07/26 00:25:43;;;;;;;21.30;11.48;;;16.60;99.90;;;;;;5012299;28;20075;-72
2021/07/26 00:28:09;;;;;;;19.27;12.40;;;16.60;99.90;;;;;;5012984;28;20018;-71
2021/07/26 00:30:35;;;;;;;16.25;13.50;;;16.50;99.90;;;;;;5013103;28;20022;-73
2021/07/26 00:33:01;;;;;;;16.75;13.10;;;16.60;99.90;;;;;;5012686;28;20431;-72
2021/07/26 00:35:27;;;;;;;24.45;13.77;;;16.70;99.90;;;;;;5018882;28;20026;-72
2021/07/26 00:37:52;;;;;;;17.70;12.70;;;16.70;99.90;;;;;;5013114;28;20392;-71
2021/07/26 00:40:18;;;;;;;18.58;13.38;;;16.70;99.90;;;;;;5012984;28;20041;-72
2021/07/26 00:42:44;;;;;;;21.35;12.70;;;16.70;99.90;;;;;;5012699;28;20018;-72
2021/07/26 00:45:10;;;;;;;18.65;12.48;;;16.60;99.90;;;;;;5012082;28;20076;-72
2021/07/26 00:47:36;;;;;;;19.77;12.00;;;16.60;99.90;;;;;;5012510;28;20539;-71
2021/07/26 00:50:02;;;;;;;18.88;11.25;;;16.60;99.90;;;;;;5012241;28;20030;-71
2021/07/26 00:52:28;;;;;;;15.30;11.35;;;16.60;99.90;;;;;;4994954;28;20468;-71
2021/07/26 00:54:54;;;;;;;17.17;10.63;;;16.60;99.90;;;;;;5011999;28;20074;-72
2021/07/26 00:57:21;;;;;;;19.13;10.50;;;16.60;99.90;;;;;;4995155;28;20029;-72
2021/07/26 00:59:48;;;;;;;19.80;10.55;;;16.60;99.90;;;;;;5012932;28;20380;-72
2021/07/26 01:02:14;;;;;;;14.52;10.55;;;16.60;99.90;;;;;;5012337;28;20030;-72
2021/07/26 01:04:40;;;;;;;12.82;9.40;;;16.60;99.90;;;;;;5011649;28;20060;-72
2021/07/26 01:07:05;;;;;;;15.75;10.35;;;16.60;99.90;;;;;;5011205;28;20037;-71
2021/07/26 01:09:31;;;;;;;13.00;10.32;;;16.60;99.90;;;;;;5012493;28;20022;-72
2021/07/26 01:11:57;;;;;;;12.70;9.15;;;16.60;99.90;;;;;;5012224;28;20032;-74
2021/07/26 01:14:24;;;;;;;12.10;9.52;;;16.60;99.90;;;;;;5011697;28;20026;-73
2021/07/26 01:16:49;;;;;;;14.75;9.30;;;16.60;99.90;;;;;;5012014;28;20022;-74
2021/07/26 01:19:16;;;;;;;14.25;9.98;;;16.60;99.90;;;;;;5011775;28;20026;-73
2021/07/26 01:21:42;;;;;;;10.52;8.68;;;16.60;99.90;;;;;;5010905;28;20390;-73
2021/07/26 01:24:08;;;;;;;11.10;9.27;;;16.60;99.90;;;;;;5012131;28;20017;-74
2021/07/26 01:26:33;;;;;;;11.85;8.75;;;16.50;99.90;;;;;;5011390;28;20129;-73
2021/07/26 01:29:02;;;;;;;13.32;8.57;;;16.50;99.90;;;;;;5012124;28;20076;-73
2021/07/26 01:31:28;;;;;;;15.75;8.13;;;16.50;99.90;;;;;;5011888;28;20025;-73
2021/07/26 01:33:54;;;;;;;11.95;7.53;;;16.50;99.90;;;;;;5011903;28;20029;-73
2021/07/26 01:36:22;;;;;;;8.73;7.70;;;16.40;99.90;;;;;;5011651;28;20140;-73
2021/07/26 01:38:51;;;;;;;12.75;7.55;;;16.30;99.90;;;;;;5012109;28;20064;-73
2021/07/26 01:41:22;;;;;;;10.52;7.38;;;16.20;99.90;;;;;;4994561;28;20045;-72
2021/07/26 01:44:07;;;;;;;9.18;7.53;;;16.20;99.90;;;;;;5011912;28;20025;-73
2021/07/26 01:46:51;;;;;;;16.95;7.00;;;16.20;99.90;;;;;;5009882;28;20033;-73
2021/07/26 01:49:39;;;;;;;10.10;7.25;;;16.20;99.90;;;;;;5012414;28;20026;-73
2021/07/26 01:52:06;;;;;;;10.75;7.55;;;16.20;99.90;;;;;;5012197;28;20109;-73
2021/07/26 01:54:32;;;;;;;9.77;7.60;;;16.20;99.90;;;;;;5011724;28;20018;-74
2021/07/26 01:56:58;;;;;;;10.60;9.15;;;16.30;99.90;;;;;;5012511;28;20084;-73
2021/07/26 01:59:23;;;;;;;12.82;8.75;;;16.40;99.90;;;;;;5013702;28;20100;-74
2021/07/26 02:01:49;;;;;;;13.50;9.02;;;16.50;99.90;;;;;;5019582;28;20064;-74
2021/07/26 02:04:15;;;;;;;13.85;9.07;;;16.40;99.90;;;;;;5020238;28;20058;-73
2021/07/26 02:06:41;;;;;;;14.70;10.25;;;16.50;99.90;;;;;;5020464;28;20045;-74
2021/07/26 02:09:07;;;;;;;14.48;10.60;;;16.50;99.90;;;;;;5021600;28;20018;-74
2021/07/26 02:11:33;;;;;;;16.10;10.77;;;16.50;99.90;;;;;;5019497;28;20532;-73
2021/07/26 02:13:59;;;;;;;17.83;10.18;;;16.50;99.90;;;;;;5013593;28;20022;-73
2021/07/26 02:16:24;;;;;;;15.75;10.15;;;16.50;99.90;;;;;;5012372;28;20038;-74
2021/07/26 02:18:50;;;;;;;13.00;10.10;;;16.40;99.90;;;;;;5013831;28;20052;-73
2021/07/26 02:21:16;;;;;;;15.73;9.20;;;16.30;99.90;;;;;;5014299;28;20041;-74
2021/07/26 02:23:41;;;;;;;15.32;9.55;;;16.30;99.90;;;;;;5013544;28;20464;-74
2021/07/26 02:26:07;;;;;;;16.60;9.85;;;16.30;99.90;;;;;;4994168;23;20051;-74
2021/07/26 02:28:33;;;;;;;21.02;10.55;;;16.30;99.90;;;;;;4953676;29;20028;-74
2021/07/26 02:30:58;;;;;;;12.95;9.65;;;16.40;99.90;;;;;;4955996;29;20023;-73
2021/07/26 02:33:24;;;;;;;13.30;9.95;;;16.30;99.90;;;;;;4956154;28;20390;-73
2021/07/26 02:35:50;;;;;;;14.25;9.82;;;16.20;99.90;;;;;;4964757;28;20401;-73
2021/07/26 02:38:15;;;;;;;13.73;9.57;;;16.20;99.90;;;;;;4959423;28;20027;-74
2021/07/26 02:40:41;;;;;;;12.57;9.48;;;16.30;99.90;;;;;;4976303;28;20035;-73
2021/07/26 02:43:07;;;;;;;14.40;9.73;;;16.30;99.90;;;;;;4976223;28;20042;-73
2021/07/26 02:45:32;;;;;;;14.88;10.07;;;16.20;99.90;;;;;;4975580;28;20038;-74
2021/07/26 02:47:58;;;;;;;19.80;11.18;;;16.30;99.90;;;;;;4976419;28;20469;-74
2021/07/26 02:50:27;;;;;;;14.13;9.60;;;16.40;99.90;;;;;;4975926;28;20034;-74
2021/07/26 02:52:53;;;;;;;15.55;9.35;;;16.30;99.90;;;;;;4975990;28;20023;-73
2021/07/26 02:55:19;;;;;;;12.52;8.50;;;16.30;99.90;;;;;;4975467;28;20077;-74
2021/07/26 02:57:45;;;;;;;12.85;8.45;;;16.20;99.90;;;;;;4976026;28;20128;-74
2021/07/26 03:00:11;;;;;;;14.18;8.77;;;16.20;99.90;;;;;;4976009;28;20062;-74
2021/07/26 03:02:37;;;;;;;17.25;7.88;;;16.20;99.90;;;;;;4975896;28;20110;-74
2021/07/26 03:05:04;;;;;;;18.63;8.57;;;16.10;99.90;;;;;;4974912;28;20057;-74
2021/07/26 03:07:32;;;;;;;20.17;8.70;;;16.10;99.90;;;;;;4975673;28;20031;-74
2021/07/26 03:09:58;;;;;;;13.50;8.00;;;16.10;99.90;;;;;;4974911;28;20077;-74
2021/07/26 03:12:24;;;;;;;17.60;8.68;;;16.10;99.90;;;;;;4975970;28;20385;-74
2021/07/26 03:14:49;;;;;;;18.30;7.95;;;16.20;99.90;;;;;;4974968;28;20037;-74
2021/07/26 03:17:15;;;;;;;19.70;8.68;;;16.10;99.90;;;;;;4975705;28;20038;-73
2021/07/26 03:19:41;;;;;;;24.08;9.82;;;16.20;99.90;;;;;;4975555;28;20034;-74
2021/07/26 03:22:48;;;;;;;21.45;9.02;;;16.20;99.90;;;;;;4976348;28;20030;-75
2021/07/26 03:25:14;;;;;;;25.08;9.45;;;16.30;99.90;;;;;;4966912;28;20043;-74
2021/07/26 03:27:40;;;;;;;20.00;9.18;;;16.40;99.90;;;;;;4975593;28;20027;-74
2021/07/26 03:30:06;;;;;;;19.70;9.60;;;16.30;99.90;;;;;;4975396;28;20482;-74
2021/07/26 03:32:32;;;;;;;18.92;9.15;;;16.30;99.90;;;;;;4975671;28;20055;-74
2021/07/26 03:34:57;;;;;;;19.63;10.85;;;16.30;99.90;;;;;;4967785;28;20072;-74
2021/07/26 03:37:23;;;;;;;23.80;11.00;;;16.40;99.90;;;;;;4975174;28;20059;-73
2021/07/26 03:39:49;;;;;;;16.85;10.20;;;16.40;99.90;;;;;;4974473;28;20039;-73
2021/07/26 03:42:14;;;;;;;25.45;10.15;;;16.50;99.90;;;;;;4974912;28;20030;-73
2021/07/26 03:44:40;;;;;;;17.48;10.68;;;16.40;99.90;;;;;;4972409;28;20061;-73
2021/07/26 03:47:06;;;;;;;25.23;12.65;;;16.40;99.90;;;;;;4972504;28;20054;-73
2021/07/26 03:49:31;;;;;;;17.10;11.27;;;16.40;99.90;;;;;;4974406;28;20023;-73
2021/07/26 03:51:57;;;;;;;18.70;9.82;;;16.40;99.90;;;;;;4973968;28;20030;-72
2021/07/26 03:54:22;;;;;;;20.23;10.07;;;16.30;99.90;;;;;;4973389;28;20073;-74
2021/07/26 03:56:48;;;;;;;15.18;9.55;;;16.30;99.90;;;;;;4972966;28;20090;-74
2021/07/26 03:59:14;;;;;;;16.05;9.50;;;16.30;99.90;;;;;;4955276;28;20054;-74
2021/07/26 04:01:40;;;;;;;12.60;9.98;;;16.30;99.90;;;;;;4972722;28;20477;-74
2021/07/26 04:04:05;;;;;;;24.42;11.65;;;16.40;99.90;;;;;;4972756;28;20023;-73
2021/07/26 04:06:31;;;;;;;17.35;11.35;;;16.40;99.90;;;;;;4971240;28;20039;-73
2021/07/26 04:08:57;;;;;;;14.82;10.73;;;16.50;99.90;;;;;;4972150;28;20027;-73
2021/07/26 04:11:30;;;;;;;18.83;11.43;;;16.60;99.90;;;;;;4972491;28;20050;-74
2021/07/26 04:14:03;;;;;;;12.65;10.13;;;16.50;99.90;;;;;;4972050;28;20027;-74
2021/07/26 04:16:29;;;;;;;17.67;9.85;;;16.50;99.90;;;;;;4971411;28;20038;-74
2021/07/26 04:18:56;;;;;;;13.88;9.45;;;16.40;99.90;;;;;;4954686;28;20031;-73
2021/07/26 04:21:29;;;;;;;19.52;10.30;;;16.40;99.90;;;;;;4970977;28;20506;-72
2021/07/26 04:23:56;;;;;;;21.58;9.85;;;16.40;99.90;;;;;;4973825;28;20031;-73
2021/07/26 04:26:22;;;;;;;22.60;8.68;;;16.40;99.90;;;;;;4972857;28;20582;-73
2021/07/26 04:28:47;;;;;;;15.45;9.23;;;16.30;99.90;;;;;;4973341;28;20105;-73
2021/07/26 04:31:13;;;;;;;15.00;8.95;;;16.20;99.90;;;;;;4974065;28;20473;-73
2021/07/26 04:33:39;;;;;;;10.73;8.48;;;16.30;99.90;;;;;;4975259;28;20015;-74
2021/07/26 04:36:04;;;;;;;12.32;8.50;;;16.30;99.90;;;;;;4973861;28;20059;-73
2021/07/26 04:38:30;;;;;;;16.05;7.95;;;16.20;99.90;;;;;;4974020;28;20026;-73
2021/07/26 04:40:57;;;;;;;18.35;9.18;;;16.20;99.90;;;;;;4982608;28;20033;-73
2021/07/26 04:43:23;;;;;;;18.10;9.32;;;16.30;99.90;;;;;;4980462;28;20370;-73
2021/07/26 04:45:49;;;;;;;11.30;8.13;;;16.40;99.90;;;;;;4975730;28;20579;-73
2021/07/26 04:48:15;;;;;;;13.38;9.35;;;16.40;99.90;;;;;;4976590;28;20058;-73
2021/07/26 04:50:41;;;;;;;19.63;9.93;;;16.40;99.90;;;;;;4975843;28;20058;-74
2021/07/26 04:53:06;;;;;;;14.57;9.27;;;16.30;99.90;;;;;;4973632;28;20018;-73
2021/07/26 04:55:32;;;;;;;20.98;9.77;;;16.30;99.90;;;;;;4972524;28;20029;-74
2021/07/26 04:57:58;;;;;;;25.52;9.90;;;16.30;99.90;;;;;;4978639;28;20109;-73
2021/07/26 05:00:26;;;;;;;22.60;9.40;;;16.30;99.90;;;;;;4958508;28;20117;-72
2021/07/26 05:02:53;;;;;;;19.63;10.32;;;16.30;99.90;;;;;;4972812;28;20150;-73
2021/07/26 05:05:18;;;;;;;25.63;9.63;;;16.40;99.90;;;;;;4972713;28;20477;-72
2021/07/26 05:07:44;;;;;;;15.52;10.50;;;16.50;99.90;;;;;;4970572;28;20034;-71
2021/07/26 05:10:11;;;;;;;19.42;10.35;;;16.40;99.90;;;;;;4971285;28;20023;-73
2021/07/26 05:12:37;;;;;;;18.23;10.20;;;16.50;99.90;;;;;;4972657;28;20201;-74
2021/07/26 05:15:04;;;;;;;15.80;10.93;;;16.50;99.90;;;;;;4972550;28;20168;-74
2021/07/26 05:17:30;;;;;;;16.00;9.75;;;16.60;99.90;;;;;;4972603;28;20401;-72
2021/07/26 05:19:55;;;;;;;11.77;8.70;;;16.50;99.90;;;;;;4973035;28;20042;-73
2021/07/26 05:22:22;;;;;;;11.95;8.40;;;16.50;99.90;;;;;;4973366;28;20059;-74
2021/07/26 05:24:48;;;;;;;16.25;8.82;;;16.50;99.90;;;;;;4973535;28;20084;-73
2021/07/26 05:27:14;;;;;;;19.33;8.93;;;16.50;99.90;;;;;;4975368;28;20019;-74
2021/07/26 05:29:40;;;;;;;17.38;8.25;;;16.40;99.90;;;;;;4959023;28;20109;-73
2021/07/26 05:32:09;;;;;;;16.25;8.20;;;16.20;99.90;;;;;;4972315;28;20452;-70
2021/07/26 05:34:35;;;;;;;21.20;8.38;;;16.20;99.90;;;;;;4970673;28;20041;-70
2021/07/26 05:37:01;;;;;;;12.65;8.02;;;16.20;99.90;;;;;;4972279;28;20042;-71
2021/07/26 05:39:27;;;;;;;14.27;8.65;;;16.30;99.90;;;;;;4972431;28;20717;-71
2021/07/26 05:41:57;;;;;;;12.13;8.02;;;16.40;99.90;;;;;;4971860;28;20015;-70
2021/07/26 05:44:22;;;;;;;17.15;9.07;;;16.40;99.90;;;;;;4971359;28;20023;-70
2021/07/26 05:46:48;;;;;;;16.60;9.07;;;16.80;99.90;;;;;;4974607;28;20525;-71
2021/07/26 05:49:14;;;;;;;20.50;8.82;;;16.90;99.90;;;;;;4971596;28;20678;-70
2021/07/26 05:51:40;;;;;;;20.65;9.60;;;17.10;99.90;;;;;;4969320;28;20054;-71
2021/07/26 05:54:06;;;;;;;17.10;9.52;;;17.20;99.90;;;;;;4953114;29;20058;-70
2021/07/26 05:56:40;;;;;;;15.38;7.93;;;17.30;99.90;;;;;;4952555;29;20109;-70
2021/07/26 05:59:06;;;;;;;17.40;9.05;;;17.40;99.90;;;;;;4953377;29;20034;-71
2021/07/26 06:01:47;;;;;;;14.32;8.23;;;17.60;99.90;;;;;;4961147;28;20031;-70
2021/07/26 06:04:18;;;;;;;17.80;6.97;;;17.60;99.90;;;;;;4972352;28;20078;-70
2021/07/26 06:06:46;;;;;;;17.88;7.07;;;17.30;99.90;;;;;;4972319;28;20031;-72
2021/07/26 06:09:12;;;;;;;7.65;6.47;;;17.10;99.90;;;;;;4976579;28;20026;-70
2021/07/26 06:11:39;;;;;;;11.48;6.28;;;17.00;99.90;;;;;;4974848;28;20045;-72
2021/07/26 06:14:06;;;;;;;13.40;6.88;;;16.90;99.90;;;;;;4976299;28;20022;-71
2021/07/26 06:16:32;;;;;;;17.15;6.55;;;16.90;99.90;;;;;;4975182;28;20027;-70
2021/07/26 06:19:00;;;;;;;16.67;6.50;;;17.00;99.90;;;;;;4974320;28;20039;-70
2021/07/26 06:21:26;;;;;;;17.48;6.70;;;17.10;99.90;;;;;;4976374;28;20170;-70
2021/07/26 06:23:52;;;;;;;10.10;6.72;;;17.20;99.90;;;;;;4970008;28;20015;-69
2021/07/26 06:26:17;;;;;;;14.43;6.57;;;17.30;99.90;;;;;;4971112;28;20031;-69
2021/07/26 06:28:43;;;;;;;13.48;6.60;;;17.40;99.90;;;;;;4975883;28;20019;-69
2021/07/26 06:31:10;;;;;;;14.77;5.88;;;17.50;99.90;;;;;;4975764;28;20429;-69
2021/07/26 06:33:36;;;;;;;13.57;6.03;;;17.60;99.90;;;;;;4975828;28;20113;-69
2021/07/26 06:36:04;;;;;;;12.50;6.45;;;17.60;99.90;;;;;;4975074;28;20027;-70
2021/07/26 06:38:30;;;;;;;11.65;6.47;;;17.70;99.90;;;;;;4975764;28;20118;-70
2021/07/26 06:40:56;;;;;;;18.25;6.32;;;18.00;99.90;;;;;;4975891;28;20440;-69
2021/07/26 06:43:22;;;;;;;13.75;5.68;;;18.20;99.90;;;;;;4975564;28;20440;-71
2021/07/26 06:45:47;;;;;;;8.77;5.60;;;18.40;99.90;;;;;;4974404;28;20035;-69
2021/07/26 06:48:13;;;;;;;8.50;5.15;;;18.30;99.90;;;;;;4975416;28;20027;-69
2021/07/26 06:50:39;;;;;;;8.82;5.97;;;18.40;99.90;;;;;;4990161;28;20089;-69
2021/07/26 06:53:07;;;;;;;11.88;6.22;;;18.70;99.90;;;;;;4994712;28;20072;-69
2021/07/26 06:55:36;;;;;;;14.65;5.70;;;18.80;99.90;;;;;;4994099;28;20069;-70
2021/07/26 06:58:03;;;;;;;11.10;5.93;;;18.80;99.90;;;;;;4994941;28;20117;-70
2021/07/26 07:00:28;;;;;;;16.90;5.55;;;18.80;99.90;;;;;;4994551;28;20019;-70
2021/07/26 07:02:54;;;;;;;10.88;5.00;;;18.90;99.90;;;;;;4994638;28;20030;-70
2021/07/26 07:05:20;;;;;;;10.55;6.38;;;18.90;99.90;;;;;;4993940;28;20037;-70
2021/07/26 07:07:45;;;;;;;6.35;5.07;;;19.30;99.90;;;;;;4994949;28;20023;-70
2021/07/26 07:10:11;;;;;;;7.22;5.40;;;19.50;99.90;;;;;;4994713;28;20022;-70
2021/07/26 07:12:37;;;;;;;15.80;5.78;;;19.70;99.90;;;;;;4994812;28;20385;-70
2021/07/26 07:15:03;;;;;;;8.93;4.88;;;19.90;99.90;;;;;;4993797;28;20042;-70
2021/07/26 07:17:28;;;;;;;12.48;4.75;;;19.90;99.90;;;;;;4994456;28;20373;-71
2021/07/26 07:19:54;;;;;;;8.23;4.53;;;19.90;99.90;;;;;;4985567;28;20034;-70
2021/07/26 07:22:20;;;;;;;12.13;4.90;;;20.00;99.90;;;;;;4975139;28;20027;-70
2021/07/26 07:24:46;;;;;;;8.20;4.53;;;20.20;99.90;;;;;;4992602;28;20027;-70
2021/07/26 07:27:12;;;;;;;11.52;4.63;;;20.30;99.90;;;;;;4994748;28;20048;-70
2021/07/26 07:29:38;;;;;;;5.70;4.20;;;20.80;99.90;;;;;;4993935;28;20489;-70
2021/07/26 07:32:04;;;;;;;7.53;3.40;;;21.10;99.90;;;;;;4981826;28;20110;-70
2021/07/26 07:34:30;;;;;;;9.70;4.57;;;21.30;99.90;;;;;;4974642;28;20437;-70
2021/07/26 07:36:58;;;;;;;8.45;4.10;;;21.60;99.90;;;;;;4974321;28;20026;-70
2021/07/26 07:39:25;;;;;;;8.13;4.00;;;21.70;99.90;;;;;;4974990;28;20034;-70
2021/07/26 07:41:51;;;;;;;7.13;4.30;;;21.50;99.90;;;;;;4974877;28;20027;-70
2021/07/26 07:44:17;;;;;;;6.65;3.92;;;21.40;99.90;;;;;;4974068;28;20086;-70
2021/07/26 07:46:42;;;;;;;10.07;4.32;;;21.40;99.90;;;;;;4975373;28;20035;-71
2021/07/26 07:49:08;;;;;;;8.45;3.50;;;21.40;99.90;;;;;;4975842;28;20621;-70
2021/07/26 07:51:34;;;;;;;5.63;3.38;;;21.80;99.90;;;;;;4975518;28;20530;-70
2021/07/26 07:54:00;;;;;;;10.32;3.90;;;22.40;99.90;;;;;;4975446;28;20030;-70
2021/07/26 07:56:26;;;;;;;7.90;3.35;;;22.00;99.90;;;;;;4973862;28;20058;-70
2021/07/26 07:58:54;;;;;;;4.25;3.20;;;21.60;99.90;;;;;;4973642;28;20097;-73
2021/07/26 08:01:29;;;;;;;8.13;3.55;;;21.60;99.90;;;;;;4974537;28;20089;-74
2021/07/26 08:03:54;;;;;;;5.20;3.30;;;21.60;99.90;;;;;;4976831;28;20088;-73
2021/07/26 08:06:20;;;;;;;3.92;3.40;;;21.50;99.90;;;;;;4993056;28;20076;-73
2021/07/26 08:08:46;;;;;;;4.57;3.63;;;21.70;99.90;;;;;;4993975;28;20201;-72
2021/07/26 08:11:13;;;;;;;9.23;3.42;;;21.70;99.90;;;;;;4993932;28;20018;-72
2021/07/26 08:13:39;;;;;;;7.57;4.03;;;22.10;99.90;;;;;;4988146;28;20081;-72
2021/07/26 08:16:05;;;;;;;6.80;3.88;;;22.60;99.90;;;;;;4973570;28;20019;-73
2021/07/26 08:18:32;;;;;;;5.63;3.47;;;22.70;99.90;;;;;;4974102;28;20022;-72
2021/07/26 08:20:58;;;;;;;5.70;3.20;;;22.60;99.90;;;;;;4973983;28;20035;-72
2021/07/26 08:23:24;;;;;;;5.20;3.38;;;22.70;99.90;;;;;;4974152;28;20077;-73
2021/07/26 08:25:49;;;;;;;6.07;3.60;;;22.90;99.90;;;;;;4972176;28;20034;-72
2021/07/26 08:28:15;;;;;;;5.15;3.35;;;23.20;99.90;;;;;;4969833;28;20041;-73
2021/07/26 08:30:41;;;;;;;8.10;3.45;;;23.30;99.90;;;;;;4955597;28;20113;-72
2021/07/26 08:33:07;;;;;;;4.25;3.70;;;23.40;99.90;;;;;;5025383;23;20104;-71
2021/07/26 08:35:34;;;;;;;5.82;3.45;;;24.00;99.90;;;;;;5004989;28;20148;-71
2021/07/26 08:37:59;;;;;;;8.20;3.53;;;24.50;99.90;;;;;;5016374;28;20508;-71
2021/07/26 08:40:27;;;;;;;5.60;3.58;;;24.70;99.90;;;;;;5013482;28;20037;-70
2021/07/26 08:42:54;;;;;;;5.45;3.45;;;25.10;99.90;;;;;;5013548;28;20100;-71
2021/07/26 08:45:20;;;;;;;5.35;3.65;;;26.00;99.90;;;;;;5015285;28;20457;-71
2021/07/26 08:47:47;;;;;;;6.07;2.92;;;25.90;99.90;;;;;;5018134;28;20026;-71
2021/07/26 08:50:16;;;;;;;6.55;3.20;;;26.00;99.90;;;;;;5021043;28;20025;-71
2021/07/26 08:52:46;;;;;;;4.22;2.75;;;25.30;99.90;;;;;;5022905;28;20029;-71
2021/07/26 08:55:16;;;;;;;6.38;2.83;;;24.90;99.90;;;;;;5033261;28;20112;-72
2021/07/26 08:57:46;;;;;;;7.47;2.90;;;24.50;99.90;;;;;;5018497;28;20030;-71
2021/07/26 09:00:15;;;;;;;3.30;3.00;;;24.80;99.90;;;;;;4991677;28;20436;-72
2021/07/26 09:02:41;;;;;;;2.90;2.70;;;25.00;99.90;;;;;;5002564;28;20014;-71
2021/07/26 09:05:08;;;;;;;3.08;2.72;;;25.80;99.90;;;;;;5011107;28;20034;-72
2021/07/26 09:07:38;;;;;;;4.63;2.97;;;25.80;99.90;;;;;;5010394;28;20030;-70
2021/07/26 09:10:20;;;;;;;2.97;2.47;;;26.00;99.90;;;;;;4995263;28;20034;-69
2021/07/26 09:12:48;;;;;;;3.33;2.60;;;26.50;99.90;;;;;;5001046;28;20026;-70
2021/07/26 09:15:33;;;;;;;4.28;2.38;;;26.80;99.90;;;;;;5015635;28;20105;-70
2021/07/26 09:18:05;;;;;;;2.90;2.58;;;27.50;99.90;;;;;;5012104;28;20488;-70
2021/07/26 09:20:32;;;;;;;2.45;1.63;;;28.30;99.90;;;;;;5005216;28;20084;-69
2021/07/26 09:23:12;;;;;;;2.63;1.83;;;26.70;99.90;;;;;;5012043;28;20026;-70
2021/07/26 09:25:42;;;;;;;3.67;2.00;;;27.40;99.90;;;;;;5011565;28;20080;-69
2021/07/26 09:28:17;;;;;;;2.35;2.10;;;27.00;99.90;;;;;;5011714;28;20030;-71
2021/07/26 09:30:47;;;;;;;2.45;1.95;;;27.30;99.90;;;;;;4994427;28;20034;-70
2021/07/26 09:33:28;;;;;;;2.17;1.90;;;28.90;99.90;;;;;;4994495;28;20034;-70
2021/07/26 09:36:07;;;;;;;;;;;29.40;99.90;;;;;;5011696;28;20034;-70
2021/07/26 09:38:33;;;;;;;2.25;2.05;;;29.40;97.10;;;;;;5012393;28;20322;-69
2021/07/26 09:41:01;;;;;;;4.63;1.90;;;30.00;99.70;;;;;;4993836;28;20030;-69
2021/07/26 09:43:27;;;;;;;1.65;1.55;;;29.80;97.20;;;;;;5003006;28;20018;-70
2021/07/26 09:45:54;;;;;;;3.10;2.00;;;29.70;97.10;;;;;;5002815;28;20476;-71
2021/07/26 09:48:29;;;;;;;2.38;1.88;;;29.90;96.30;;;;;;5009898;28;20077;-71
2021/07/26 09:50:57;;;;;;;4.28;2.05;;;29.60;96.20;;;;;;4997920;28;20030;-71
2021/07/26 09:53:24;;;;;;;2.97;1.70;;;30.00;96.00;;;;;;5011466;28;20072;-71
2021/07/26 09:55:55;;;;;;;2.28;1.80;;;30.30;96.30;;;;;;5011104;28;20069;-71
2021/07/26 09:58:41;;;;;;;5.10;2.27;;;30.20;95.30;;;;;;4993936;28;20113;-70
2021/07/26 10:01:12;;;;;;;2.67;2.25;;;29.10;96.80;;;;;;5005595;28;20045;-71
2021/07/26 10:03:39;;;;;;;3.78;1.85;;;29.70;97.00;;;;;;5010442;28;20072;-71
2021/07/26 10:06:05;;;;;;;1.80;1.70;;;30.60;95.40;;;;;;5011280;28;20388;-71
2021/07/26 10:08:31;;;;;;;2.60;1.45;;;30.10;94.70;;;;;;5011593;28;20098;-71
2021/07/26 10:10:57;;;;;;;2.00;1.75;;;30.00;94.60;;;;;;4994045;28;20069;-71
2021/07/26 10:13:23;;;;;;;3.17;2.00;;;30.60;93.30;;;;;;5011348;28;20048;-71
2021/07/26 10:15:50;;;;;;;1.88;1.67;;;31.50;92.80;;;;;;5001176;28;20026;-71
2021/07/26 10:18:16;;;;;;;2.67;1.63;;;31.10;91.70;;;;;;5010073;28;20117;-71
2021/07/26 10:20:58;;;;;;;3.03;1.98;;;30.60;91.90;;;;;;5009808;28;20500;-71
2021/07/26 10:24:01;;;;;;;2.20;2.00;;;30.90;91.60;;;;;;4991930;28;20030;-70
2021/07/26 10:26:45;;;;;;;4.05;1.77;;;30.50;91.40;;;;;;4960377;28;20035;-70
2021/07/26 10:29:11;;;;;;;2.22;1.88;;;31.20;90.60;;;;;;4991673;28;20030;-70
2021/07/26 10:31:38;;;;;;;2.13;1.90;;;31.10;91.40;;;;;;4991908;28;20369;-72
2021/07/26 10:34:11;;;;;;;3.38;2.20;;;30.90;91.40;;;;;;4991703;28;20034;-71
2021/07/26 10:36:43;;;;;;;3.67;2.20;;;30.60;92.70;;;;;;4991045;28;20030;-70
2021/07/26 10:39:12;;;;;;;2.63;2.38;;;30.60;90.40;;;;;;4991729;28;20065;-72
2021/07/26 10:41:44;;;;;;;2.55;2.20;;;29.90;90.40;;;;;;4974332;28;20026;-71
2021/07/26 10:44:33;;;;;;;3.38;2.17;;;29.40;92.10;;;;;;4974170;28;20019;-71
2021/07/26 10:47:07;;;;;;;3.15;2.10;;;29.30;91.00;;;;;;4991645;28;20481;-71
2021/07/26 10:49:50;;;;;;;2.50;2.30;;;29.60;91.80;;;;;;4993927;28;20138;-71
2021/07/26 10:52:22;;;;;;;4.00;2.33;;;29.50;92.00;;;;;;5010194;28;20051;-71
2021/07/26 10:54:47;;;;;;;;;;;29.40;91.80;;;;;;5013930;28;20026;-71
2021/07/26 10:57:14;;;;;;;2.38;2.10;;;29.30;95.30;;;;;;5014751;28;20379;-72
2021/07/26 11:00:08;;;;;;;2.40;2.20;;;29.60;92.70;;;;;;5014732;28;20037;-71
2021/07/26 11:02:35;;;;;;;2.42;2.20;;;29.70;91.50;;;;;;5014680;28;20117;-71
2021/07/26 11:05:25;;;;;;;2.83;2.42;;;29.60;93.80;;;;;;5013182;28;20030;-72
2021/07/26 11:08:25;;;;;;;4.28;2.42;;;29.40;93.10;;;;;;4997016;28;20105;-71
2021/07/26 11:10:57;;;;;;;2.97;2.17;;;28.90;91.90;;;;;;4963069;28;20096;-71
2021/07/26 11:13:43;;;;;;;3.03;2.45;;;29.30;91.50;;;;;;4995001;28;20026;-70
2021/07/26 11:16:09;;;;;;;3.83;2.35;;;29.20;94.40;;;;;;5004234;28;20036;-70
2021/07/26 11:18:39;;;;;;;3.83;2.00;;;29.80;92.60;;;;;;5014557;28;20025;-72
2021/07/26 11:21:16;;;;;;;2.78;2.45;;;29.60;92.00;;;;;;4995445;28;20103;-72
2021/07/26 11:23:53;;;;;;;3.05;2.30;;;28.10;93.30;;;;;;5014673;28;20104;-72
2021/07/26 11:26:31;;;;;;;2.75;2.42;;;27.50;95.60;;;;;;5014449;28;20021;-71
2021/07/26 11:29:09;;;;;;;3.60;3.25;;;27.50;95.70;;;;;;5013840;28;20076;-71
2021/07/26 11:31:38;;;;;;;3.20;2.90;;;27.00;94.50;;;;;;5014440;28;20092;-71
2021/07/26 11:34:22;;;;;;;4.10;2.70;;;26.70;94.70;;;;;;5014242;28;20557;-72
2021/07/26 11:37:09;;;;;;;3.85;3.15;;;26.00;97.10;;;;;;5013960;28;20117;-72
2021/07/26 11:39:52;;;;;;;2.45;2.35;;;26.10;96.10;;;;;;5014311;28;20075;-72
2021/07/26 11:42:29;;;;;;;2.92;2.60;;;26.10;96.20;;;;;;4996631;28;20032;-72
2021/07/26 11:44:55;;;;;;;3.17;2.60;;;26.20;95.60;;;;;;5013879;28;20068;-71
2021/07/26 11:47:42;;;;;;;5.28;2.55;;;26.20;95.90;;;;;;5014086;28;20022;-72
2021/07/26 11:50:18;;;;;;;2.60;2.40;;;26.00;96.60;;;;;;4993883;28;20101;-71
2021/07/26 11:52:53;;;;;;;6.70;2.50;;;25.80;96.50;;;;;;4994682;28;20125;-71
2021/07/26 11:55:20;;;;;;;3.92;2.50;;;25.60;96.80;;;;;;5004310;28;20152;-71
2021/07/26 11:57:58;;;;;;;2.80;2.60;;;25.70;97.50;;;;;;5037307;28;20024;-70
2021/07/26 12:00:34;;;;;;;4.95;3.28;;;25.50;98.50;;;;;;5017128;28;20065;-70
2021/07/26 12:03:01;;;;;;;3.80;3.42;;;25.60;99.90;;;;;;5014469;28;20049;-72
2021/07/26 12:05:29;;;;;;;7.68;3.20;;;25.50;98.90;;;;;;5012057;28;20034;-72
2021/07/26 12:07:54;;;;;;;4.22;3.30;;;25.50;99.30;;;;;;5013497;28;20029;-71
2021/07/26 12:10:39;;;;;;;18.88;7.03;;;25.40;99.90;;;;;;5005773;28;20026;-72
2021/07/26 12:13:14;;;;;;;13.82;5.32;;;25.50;99.90;;;;;;5000262;28;20053;-70
2021/07/26 12:15:40;;;;;;;29.55;8.63;;;25.30;99.90;;;;;;5013350;28;20512;-71
2021/07/26 12:18:14;;;;;;;57.28;15.90;;;25.20;99.90;;;;;;4995958;28;20029;-71
2021/07/26 12:20:52;;;;;;;23.77;9.55;;;25.20;99.90;;;;;;5005775;28;20077;-71
2021/07/26 12:23:19;;;;;;;15.73;6.53;;;25.10;99.90;;;;;;5000257;28;20026;-71
2021/07/26 12:25:48;;;;;;;35.78;10.02;;;24.90;99.90;;;;;;5001193;28;20105;-70
2021/07/26 12:28:19;;;;;;;53.78;16.65;;;24.90;99.90;;;;;;4983269;28;20025;-71
2021/07/26 12:30:47;;;;;;;32.20;11.02;;;24.70;99.90;;;;;;5002220;28;20015;-71
2021/07/26 12:33:30;;;;;;;25.35;8.85;;;24.60;99.90;;;;;;5000566;28;20077;-70
2021/07/26 12:36:16;;;;;;;11.20;5.35;;;24.50;99.90;;;;;;4999702;28;20022;-71
2021/07/26 12:39:18;;;;;;;8.48;4.13;;;24.50;99.90;;;;;;5002200;28;20056;-71
2021/07/26 12:41:45;;;;;;;7.15;3.85;;;24.40;99.90;;;;;;4944353;29;20450;-71
2021/07/26 12:44:18;;;;;;;5.53;3.45;;;24.20;99.90;;;;;;5000781;28;20109;-71
2021/07/26 12:46:48;;;;;;;4.53;2.90;;;24.10;99.90;;;;;;5006611;28;20029;-71
2021/07/26 12:49:15;;;;;;;7.35;3.47;;;24.10;99.90;;;;;;5003287;28;20033;-72